Time;durP1;ratioP1;P1;durP2;ratioP2;P2;SDS_P1;SDS_P2;PMS_P1;PMS_P2;Temp;Humidity;BMP_temperature;BMP_pressure;BME280_temperature;BME280_humidity;BME280_pressure;Samples;Min_cycle;Max_cycle;Signal;HPM_P1;HPM_P2
2022/10/31 00:06:18;;;;;;;55.00;44.50;;;;;;;7.09;95.49;99744.56;419280;1284;143826;-66
2022/10/31 00:16:25;;;;;;;54.20;47.00;;;;;;;6.98;95.36;99756.20;420299;1277;143103;-65
2022/10/31 00:26:32;;;;;;;56.30;45.40;;;;;;;6.87;95.15;99769.25;419010;1277;143940;-65
2022/10/31 00:36:38;;;;;;;54.10;42.70;;;;;;;6.78;95.38;99772.60;419917;1277;142943;-66
2022/10/31 00:46:43;;;;;;;57.10;44.40;;;;;;;6.70;95.30;99772.42;419882;1277;143811;-66
2022/10/31 00:56:50;;;;;;;64.00;46.10;;;;;;;6.64;95.13;99773.05;421554;1274;165525;-65
2022/10/31 01:06:56;;;;;;;55.10;45.10;;;;;;;6.57;95.02;99774.95;419866;1282;157083;-65
2022/10/31 01:17:01;;;;;;;53.10;42.20;;;;;;;6.51;95.28;99779.20;419629;1274;145443;-64
2022/10/31 01:27:07;;;;;;;56.20;44.40;;;;;;;6.42;94.96;99773.34;418960;1275;188996;-66
2022/10/31 01:37:13;;;;;;;51.30;43.10;;;;;;;6.36;94.92;99764.90;419990;1274;142553;-66
2022/10/31 01:47:22;;;;;;;63.00;42.20;;;;;;;6.40;95.99;99763.34;419711;1274;147553;-66
2022/10/31 01:57:29;;;;;;;64.10;43.30;;;;;;;6.40;96.35;99762.64;419345;1275;209530;-65
2022/10/31 02:07:40;;;;;;;55.00;43.70;;;;;;;6.34;96.33;99760.81;420649;1275;147484;-65
2022/10/31 02:17:46;;;;;;;52.70;42.30;;;;;;;6.14;95.60;99759.04;419014;1274;144652;-65
2022/10/31 02:28:10;;;;;;;49.80;39.10;;;;;;;6.06;95.84;99760.78;420247;1282;143460;-65
2022/10/31 02:38:38;;;;;;;46.00;39.40;;;;;;;6.05;95.58;99771.07;419822;1274;198465;-66
2022/10/31 02:48:45;;;;;;;45.20;37.80;;;;;;;6.10;95.23;99769.67;419634;1274;209334;-66
2022/10/31 02:58:55;;;;;;;63.00;44.40;;;;;;;6.16;95.15;99774.77;419792;1274;143231;-66
2022/10/31 03:09:12;;;;;;;57.10;42.10;;;;;;;6.25;95.89;99779.08;419776;1274;145637;-66
2022/10/31 03:19:24;;;;;;;61.00;42.30;;;;;;;6.40;96.73;99781.08;419519;1274;143467;-65
2022/10/31 03:29:34;;;;;;;46.80;37.00;;;;;;;6.62;97.78;99779.95;418997;1278;161208;-65
2022/10/31 03:39:42;;;;;;;47.10;35.40;;;;;;;6.73;98.36;99787.81;420040;1278;146158;-64
2022/10/31 03:49:47;;;;;;;55.00;36.10;;;;;;;6.79;98.76;99794.64;420202;1274;146193;-65
2022/10/31 03:59:58;;;;;;;40.00;30.80;;;;;;;6.82;99.15;99798.89;419363;1277;196627;-65
2022/10/31 04:10:08;;;;;;;40.20;31.50;;;;;;;6.81;99.26;99809.73;421035;1274;143825;-65
2022/10/31 04:20:18;;;;;;;35.60;30.10;;;;;;;6.84;99.62;99818.11;420925;1274;146105;-66
2022/10/31 04:30:23;;;;;;;40.90;31.80;;;;;;;6.89;99.77;99817.40;420347;1274;147180;-66
2022/10/31 04:40:29;;;;;;;40.70;34.90;;;;;;;6.93;99.82;99817.33;419760;1282;144265;-66
2022/10/31 04:50:35;;;;;;;39.20;33.60;;;;;;;7.00;100.00;99813.40;419390;1275;147386;-65
2022/10/31 05:00:40;;;;;;;42.00;31.50;;;;;;;7.04;99.99;99805.22;420403;1275;143054;-65
2022/10/31 05:10:46;;;;;;;42.80;32.50;;;;;;;7.14;100.00;99816.59;420261;1275;142894;-64
2022/10/31 05:20:52;;;;;;;44.20;33.70;;;;;;;7.24;100.00;99828.50;418985;1281;143863;-66
2022/10/31 05:30:58;;;;;;;45.50;32.50;;;;;;;7.29;100.00;99831.73;419494;1281;189307;-66
2022/10/31 05:41:04;;;;;;;38.60;30.60;;;;;;;7.33;100.00;99832.23;420072;1274;142419;-65
2022/10/31 05:51:09;;;;;;;33.80;29.50;;;;;;;7.44;100.00;99834.02;420432;1282;196807;-65
2022/10/31 06:01:15;;;;;;;40.90;29.60;;;;;;;7.55;100.00;99840.13;423926;1282;143009;-64
2022/10/31 06:11:21;;;;;;;39.60;26.60;;;;;;;7.67;100.00;99836.96;425285;1274;143232;-69
2022/10/31 06:21:27;;;;;;;32.70;23.10;;;;;;;7.82;100.00;99836.94;420692;1278;211875;-65
2022/10/31 06:31:33;;;;;;;31.50;23.50;;;;;;;7.91;100.00;99846.78;436285;1280;143234;-65
2022/10/31 06:41:41;;;;;;;36.80;23.70;;;;;;;8.09;100.00;99857.58;435466;1291;142567;-66
2022/10/31 06:51:49;;;;;;;37.00;25.20;;;;;;;8.35;100.00;99863.63;436106;1291;143365;-65
2022/10/31 07:01:55;;;;;;;43.00;24.80;;;;;;;8.57;100.00;99871.08;433688;1282;144033;-65
2022/10/31 07:12:01;;;;;;;50.60;26.40;;;;;;;8.87;100.00;99885.09;430120;1283;143704;-66
2022/10/31 07:22:07;;;;;;;39.80;24.20;;;;;;;9.13;100.00;99900.48;435827;1283;143443;-65
2022/10/31 07:32:12;;;;;;;42.80;26.50;;;;;;;9.39;100.00;99907.34;436238;1287;144920;-66
2022/10/31 07:42:18;;;;;;;38.40;25.10;;;;;;;9.65;100.00;99914.15;435506;1290;143147;-66
2022/10/31 07:52:25;;;;;;;33.50;24.50;;;;;;;9.98;100.00;99917.77;436213;1285;143817;-65
2022/10/31 08:02:30;;;;;;;34.00;25.80;;;;;;;10.32;100.00;99925.67;434145;1283;143352;-65
2022/10/31 08:12:36;;;;;;;34.30;26.10;;;;;;;10.73;100.00;99922.24;431617;1286;143698;-65
2022/10/31 08:22:42;;;;;;;28.70;21.80;;;;;;;10.93;100.00;99924.58;436213;1285;143715;-65
2022/10/31 08:32:49;;;;;;;27.00;21.20;;;;;;;11.27;100.00;99925.72;435458;1285;144756;-65
2022/10/31 08:43:03;;;;;;;35.00;29.20;;;;;;;11.62;100.00;99931.94;436198;1285;144430;-66
2022/10/31 08:53:11;;;;;;;30.10;27.00;;;;;;;11.92;99.50;99930.06;436166;1285;143691;-65
2022/10/31 09:03:19;;;;;;;26.70;20.40;;;;;;;12.09;99.35;99930.77;434249;1283;142732;-65
2022/10/31 09:13:24;;;;;;;24.50;20.70;;;;;;;12.41;99.55;99935.54;436281;1288;144212;-66
2022/10/31 09:23:31;;;;;;;;;;;;;;;12.62;98.89;99940.63;435527;1283;143495;-66
2022/10/31 09:33:37;;;;;;;25.30;21.10;;;;;;;12.66;98.54;99941.98;436462;1288;129268;-65
2022/10/31 09:43:50;;;;;;;35.00;21.30;;;;;;;13.21;99.28;99944.93;436244;1285;142933;-66
2022/10/31 09:54:02;;;;;;;28.50;23.70;;;;;;;13.72;98.27;99946.40;435553;1285;144335;-65
2022/10/31 10:04:31;;;;;;;33.50;23.40;;;;;;;13.98;97.65;99943.58;433331;1290;145809;-65
2022/10/31 10:14:53;;;;;;;28.10;21.40;;;;;;;14.44;96.74;99944.88;435259;1290;143112;-66
2022/10/31 10:25:13;;;;;;;30.20;24.30;;;;;;;14.61;95.95;99944.66;436237;1281;143473;-66
2022/10/31 10:35:25;;;;;;;32.90;23.70;;;;;;;14.80;95.47;99937.97;436266;1288;143060;-65
2022/10/31 10:56:01;;;;;;;31.20;24.90;;;;;;;15.26;94.42;99941.33;436220;1288;143795;-65
2022/10/31 11:06:21;;;;;;;36.40;23.80;;;;;;;15.39;93.96;99933.45;430333;1289;143587;-65
2022/10/31 11:16:34;;;;;;;29.70;24.00;;;;;;;15.60;93.71;99932.87;436164;1288;145725;-65
2022/10/31 11:26:47;;;;;;;31.90;25.50;;;;;;;15.80;92.96;99940.80;435442;1288;144161;-65
2022/10/31 11:36:53;;;;;;;39.30;28.80;;;;;;;15.90;92.37;99941.80;436168;1290;142847;-65
2022/10/31 11:47:02;;;;;;;35.00;29.90;;;;;;;16.07;91.84;99934.45;432460;1281;144987;-65
2022/10/31 11:57:22;;;;;;;34.40;27.00;;;;;;;16.27;91.45;99934.05;435493;1285;196447;-65
2022/10/31 12:07:27;;;;;;;31.10;24.80;;;;;;;16.49;90.71;99931.38;430832;1284;153011;-64
2022/10/31 12:17:41;;;;;;;32.90;26.50;;;;;;;16.56;90.19;99926.55;428969;1292;142929;-64
2022/10/31 12:28:22;;;;;;;29.00;25.60;;;;;;;16.21;89.70;99924.27;436188;1290;144193;-65
2022/10/31 12:38:46;;;;;;;35.10;26.80;;;;;;;15.75;90.07;99913.16;435431;1284;143516;-66
2022/10/31 12:49:10;;;;;;;42.50;27.40;;;;;;;15.51;90.64;99906.60;433706;1280;143137;-65
2022/10/31 12:59:22;;;;;;;38.70;29.10;;;;;;;15.44;91.12;99899.23;436192;1285;143221;-65
2022/10/31 13:09:34;;;;;;;33.80;28.90;;;;;;;15.33;91.47;99901.96;426828;1283;201264;-64
2022/10/31 13:19:44;;;;;;;34.40;29.10;;;;;;;15.24;91.94;99902.69;436141;1280;198123;-66
2022/10/31 13:30:01;;;;;;;32.00;26.90;;;;;;;15.18;92.13;99898.24;435438;1290;142806;-66
2022/10/31 13:40:20;;;;;;;32.70;25.90;;;;;;;15.16;92.36;99899.30;436196;1283;143932;-66
2022/10/31 13:50:28;;;;;;;33.20;26.40;;;;;;;15.11;92.53;99903.51;435066;1288;144359;-66
2022/10/31 14:00:35;;;;;;;37.20;29.70;;;;;;;15.03;92.77;99905.52;435945;1283;143022;-65
2022/10/31 14:10:50;;;;;;;33.10;27.20;;;;;;;14.97;93.10;99913.19;428435;1277;147707;-65
2022/10/31 14:20:56;;;;;;;35.50;27.80;;;;;;;14.87;93.26;99911.89;435147;1277;143136;-66
2022/10/31 14:31:02;;;;;;;36.80;29.90;;;;;;;14.75;93.48;99912.63;435944;1284;144134;-66
2022/10/31 14:41:31;;;;;;;39.90;29.00;;;;;;;14.58;93.79;99908.89;435995;1287;144098;-65
2022/10/31 14:51:44;;;;;;;48.40;33.90;;;;;;;14.36;94.09;99904.77;435555;1284;212606;-65
2022/10/31 15:01:58;;;;;;;42.70;30.40;;;;;;;14.11;94.70;99893.92;435425;1277;184694;-66
2022/10/31 15:12:24;;;;;;;36.30;31.40;;;;;;;13.85;95.26;99893.17;428365;1278;143062;-66
2022/10/31 15:22:32;;;;;;;41.10;33.00;;;;;;;13.52;95.83;99891.50;435954;1284;142954;-65
2022/10/31 15:32:44;;;;;;;42.40;35.20;;;;;;;13.18;96.26;99888.86;432941;1283;143170;-66
2022/10/31 15:43:06;;;;;;;49.90;36.20;;;;;;;12.90;97.20;99891.67;419469;1283;142591;-66
2022/10/31 15:53:19;;;;;;;52.10;39.00;;;;;;;12.64;98.20;99888.21;421309;1282;143322;-65
2022/10/31 16:03:28;;;;;;;56.20;42.00;;;;;;;12.33;98.61;99891.30;419019;1281;203457;-67
2022/10/31 16:13:37;;;;;;;63.00;46.70;;;;;;;12.04;99.33;99902.11;420913;1278;147186;-66
2022/10/31 16:23:51;;;;;;;68.10;46.30;;;;;;;11.78;99.83;99900.63;420169;1281;144552;-66
2022/10/31 16:34:14;;;;;;;59.90;45.30;;;;;;;11.53;100.00;99903.39;419971;1275;144974;-66
2022/10/31 16:44:27;;;;;;;60.60;47.10;;;;;;;11.25;100.00;99905.66;420298;1282;145945;-67
2022/10/31 16:54:33;;;;;;;70.30;47.40;;;;;;;10.96;100.00;99913.23;435555;1291;200201;-67
2022/10/31 17:04:39;;;;;;;80.20;43.10;;;;;;;10.92;100.00;99920.11;435827;1284;143136;-67
2022/10/31 17:14:48;;;;;;;89.60;46.80;;;;;;;10.95;100.00;99924.16;435152;1283;142917;-66
2022/10/31 17:24:53;;;;;;;75.20;50.50;;;;;;;10.98;100.00;99925.70;435936;1283;144579;-67
2022/10/31 17:34:59;;;;;;;53.50;41.80;;;;;;;10.95;100.00;99926.42;435941;1283;143687;-66
2022/10/31 17:45:06;;;;;;;68.50;41.00;;;;;;;10.84;100.00;99931.46;422612;1277;144026;-68
2022/10/31 17:55:12;;;;;;;58.10;39.00;;;;;;;10.65;100.00;99933.92;435943;1277;146422;-67
2022/10/31 18:05:18;;;;;;;54.30;36.50;;;;;;;10.47;100.00;99936.19;435996;1284;142847;-66
2022/10/31 18:15:28;;;;;;;47.90;35.90;;;;;;;10.24;100.00;99936.23;435219;1283;142759;-68
2022/10/31 18:25:34;;;;;;;45.40;35.70;;;;;;;10.04;100.00;99931.06;435811;1283;144220;-67
2022/10/31 18:35:41;;;;;;;61.70;41.30;;;;;;;9.92;100.00;99932.05;435212;1284;143577;-66
2022/10/31 18:45:47;;;;;;;58.20;43.70;;;;;;;9.88;100.00;99927.27;423207;1285;143492;-67
2022/10/31 18:55:58;;;;;;;48.20;37.60;;;;;;;9.79;100.00;99931.20;435889;1283;143939;-67
2022/10/31 19:06:04;;;;;;;43.60;34.50;;;;;;;9.67;100.00;99925.44;435233;1285;144062;-67
2022/10/31 19:16:13;;;;;;;54.60;41.30;;;;;;;9.53;100.00;99921.12;427863;1283;142829;-66
2022/10/31 19:26:19;;;;;;;50.40;38.60;;;;;;;9.33;100.00;99914.29;430807;1278;143813;-67
2022/10/31 19:36:26;;;;;;;60.20;41.60;;;;;;;9.10;100.00;99908.38;435291;1283;213481;-67
2022/10/31 19:46:32;;;;;;;51.00;38.80;;;;;;;8.90;100.00;99908.35;435790;1275;142634;-66
2022/10/31 19:56:58;;;;;;;44.20;39.40;;;;;;;8.63;100.00;99910.60;422538;1278;144440;-66
2022/10/31 20:07:03;;;;;;;49.60;41.40;;;;;;;8.42;100.00;99903.02;428421;1284;142900;-67
2022/10/31 20:17:09;;;;;;;45.70;39.30;;;;;;;8.26;100.00;99891.96;419640;1285;143120;-68
2022/10/31 20:27:15;;;;;;;48.80;41.00;;;;;;;8.08;100.00;99894.25;419056;1277;144406;-67
2022/10/31 20:37:21;;;;;;;44.00;39.20;;;;;;;7.83;100.00;99887.94;420066;1281;143082;-67
2022/10/31 20:47:27;;;;;;;48.20;40.30;;;;;;;7.65;100.00;99881.11;419233;1275;143437;-67
2022/10/31 20:57:32;;;;;;;45.30;35.20;;;;;;;7.60;100.00;99874.56;421212;1278;142807;-68
2022/10/31 21:07:39;;;;;;;51.90;38.80;;;;;;;7.55;100.00;99868.35;419641;1277;144353;-67
2022/10/31 21:17:45;;;;;;;73.30;46.90;;;;;;;7.63;100.00;99873.89;419440;1278;142815;-67
2022/10/31 21:27:51;;;;;;;62.40;41.80;;;;;;;7.70;100.00;99865.55;420055;1277;144749;-67
2022/10/31 21:37:58;;;;;;;57.20;41.10;;;;;;;7.75;100.00;99862.52;419903;1281;145093;-68
2022/10/31 21:48:04;;;;;;;54.10;38.50;;;;;;;7.81;100.00;99854.95;419012;1278;144248;-67
2022/10/31 21:58:10;;;;;;;53.70;36.00;;;;;;;7.78;100.00;99851.77;419356;1282;143650;-66
2022/10/31 22:08:16;;;;;;;58.20;34.20;;;;;;;7.72;100.00;99844.89;419421;1277;143487;-66
2022/10/31 22:18:21;;;;;;;55.60;32.10;;;;;;;7.66;100.00;99842.36;419492;1274;143924;-67
2022/10/31 22:28:32;;;;;;;52.60;31.30;;;;;;;7.62;100.00;99837.87;420248;1282;143329;-67
2022/10/31 22:38:39;;;;;;;57.70;29.60;;;;;;;7.57;100.00;99831.81;419674;1277;145539;-67
2022/10/31 22:48:46;;;;;;;51.30;26.90;;;;;;;7.50;100.00;99827.29;421482;1275;142199;-66
2022/10/31 22:58:52;;;;;;;51.00;28.00;;;;;;;7.48;100.00;99820.77;419989;1276;143355;-67
2022/10/31 23:08:59;;;;;;;44.90;27.40;;;;;;;7.51;100.00;99808.77;419887;1281;144101;-67
2022/10/31 23:19:06;;;;;;;45.30;25.50;;;;;;;7.51;100.00;99801.31;420890;1282;142646;-67
2022/10/31 23:29:12;;;;;;;53.60;26.70;;;;;;;7.50;100.00;99802.23;420042;1275;142691;-66
2022/10/31 23:39:18;;;;;;;35.00;24.20;;;;;;;7.50;100.00;99805.89;419704;1275;143582;-67
2022/10/31 23:49:29;;;;;;;41.00;23.50;;;;;;;7.49;100.00;99794.75;420158;1281;142726;-67
2022/10/31 23:59:35;;;;;;;32.80;22.50;;;;;;;7.45;100.00;99767.10;419188;1281;143058;-67
